sensor_id;sensor_type;location;lat;lon;timestamp;P1;durP1;ratioP1;P2;durP2;ratioP2
25752;SDS011;13600;50.816;4.416;2023-07-09T00:00:47;6.20;;;4.72;;
25752;SDS011;13600;50.816;4.416;2023-07-09T00:03:14;9.05;;;4.75;;
25752;SDS011;13600;50.816;4.416;2023-07-09T00:05:41;11.32;;;4.93;;
25752;SDS011;13600;50.816;4.416;2023-07-09T00:08:28;9.43;;;4.97;;
25752;SDS011;13600;50.816;4.416;2023-07-09T00:10:55;9.60;;;5.43;;
25752;SDS011;13600;50.816;4.416;2023-07-09T00:13:26;12.02;;;4.90;;
25752;SDS011;13600;50.816;4.416;2023-07-09T00:15:53;9.82;;;5.00;;
25752;SDS011;13600;50.816;4.416;2023-07-09T00:18:23;12.18;;;5.60;;
25752;SDS011;13600;50.816;4.416;2023-07-09T00:20:49;10.20;;;5.10;;
25752;SDS011;13600;50.816;4.416;2023-07-09T00:23:15;14.15;;;5.43;;
25752;SDS011;13600;50.816;4.416;2023-07-09T00:25:44;9.50;;;5.53;;
25752;SDS011;13600;50.816;4.416;2023-07-09T00:28:13;10.00;;;5.07;;
25752;SDS011;13600;50.816;4.416;2023-07-09T00:30:40;8.30;;;5.30;;
25752;SDS011;13600;50.816;4.416;2023-07-09T00:33:08;10.30;;;5.43;;
25752;SDS011;13600;50.816;4.416;2023-07-09T00:35:36;9.23;;;4.88;;
25752;SDS011;13600;50.816;4.416;2023-07-09T00:38:04;11.73;;;5.25;;
25752;SDS011;13600;50.816;4.416;2023-07-09T00:40:32;12.23;;;4.97;;
25752;SDS011;13600;50.816;4.416;2023-07-09T00:43:00;10.65;;;5.60;;
25752;SDS011;13600;50.816;4.416;2023-07-09T00:45:26;10.93;;;5.15;;
25752;SDS011;13600;50.816;4.416;2023-07-09T00:47:54;11.38;;;5.38;;
25752;SDS011;13600;50.816;4.416;2023-07-09T00:50:29;13.85;;;5.50;;
25752;SDS011;13600;50.816;4.416;2023-07-09T00:53:03;10.98;;;5.85;;
25752;SDS011;13600;50.816;4.416;2023-07-09T00:55:35;8.23;;;4.82;;
25752;SDS011;13600;50.816;4.416;2023-07-09T00:58:09;11.55;;;5.18;;
25752;SDS011;13600;50.816;4.416;2023-07-09T01:00:44;10.80;;;5.30;;
25752;SDS011;13600;50.816;4.416;2023-07-09T01:03:21;10.35;;;5.25;;
25752;SDS011;13600;50.816;4.416;2023-07-09T01:05:54;10.60;;;5.40;;
25752;SDS011;13600;50.816;4.416;2023-07-09T01:08:23;8.25;;;5.30;;
25752;SDS011;13600;50.816;4.416;2023-07-09T01:10:48;9.23;;;5.32;;
25752;SDS011;13600;50.816;4.416;2023-07-09T01:13:16;11.90;;;5.80;;
25752;SDS011;13600;50.816;4.416;2023-07-09T01:15:43;13.60;;;5.57;;
25752;SDS011;13600;50.816;4.416;2023-07-09T01:18:10;11.65;;;5.65;;
25752;SDS011;13600;50.816;4.416;2023-07-09T01:20:37;10.40;;;5.75;;
25752;SDS011;13600;50.816;4.416;2023-07-09T01:23:03;9.25;;;5.28;;
25752;SDS011;13600;50.816;4.416;2023-07-09T01:25:31;8.77;;;5.38;;
25752;SDS011;13600;50.816;4.416;2023-07-09T01:27:57;9.63;;;5.28;;
25752;SDS011;13600;50.816;4.416;2023-07-09T01:30:26;10.32;;;5.57;;
25752;SDS011;13600;50.816;4.416;2023-07-09T01:32:56;10.77;;;6.00;;
25752;SDS011;13600;50.816;4.416;2023-07-09T01:35:23;10.13;;;5.70;;
25752;SDS011;13600;50.816;4.416;2023-07-09T01:37:49;12.60;;;5.70;;
25752;SDS011;13600;50.816;4.416;2023-07-09T01:40:16;11.73;;;5.30;;
25752;SDS011;13600;50.816;4.416;2023-07-09T01:42:44;12.02;;;5.85;;
25752;SDS011;13600;50.816;4.416;2023-07-09T01:45:10;10.68;;;5.40;;
25752;SDS011;13600;50.816;4.416;2023-07-09T01:47:36;10.60;;;5.65;;
25752;SDS011;13600;50.816;4.416;2023-07-09T01:50:04;10.57;;;5.32;;
25752;SDS011;13600;50.816;4.416;2023-07-09T01:52:31;10.43;;;5.72;;
25752;SDS011;13600;50.816;4.416;2023-07-09T01:54:59;10.60;;;5.40;;
25752;SDS011;13600;50.816;4.416;2023-07-09T01:57:25;9.50;;;5.50;;
25752;SDS011;13600;50.816;4.416;2023-07-09T01:59:58;10.57;;;5.82;;
25752;SDS011;13600;50.816;4.416;2023-07-09T02:02:30;8.75;;;5.25;;
25752;SDS011;13600;50.816;4.416;2023-07-09T02:04:57;6.93;;;5.05;;
25752;SDS011;13600;50.816;4.416;2023-07-09T02:07:23;9.77;;;5.55;;
25752;SDS011;13600;50.816;4.416;2023-07-09T02:09:50;11.88;;;5.88;;
25752;SDS011;13600;50.816;4.416;2023-07-09T02:12:17;12.10;;;6.05;;
25752;SDS011;13600;50.816;4.416;2023-07-09T02:14:43;11.82;;;5.57;;
25752;SDS011;13600;50.816;4.416;2023-07-09T02:17:10;8.55;;;5.63;;
25752;SDS011;13600;50.816;4.416;2023-07-09T02:19:37;9.48;;;5.32;;
25752;SDS011;13600;50.816;4.416;2023-07-09T02:22:03;8.68;;;5.90;;
25752;SDS011;13600;50.816;4.416;2023-07-09T02:24:31;10.57;;;5.57;;
25752;SDS011;13600;50.816;4.416;2023-07-09T02:26:58;8.68;;;5.30;;
25752;SDS011;13600;50.816;4.416;2023-07-09T02:29:24;12.10;;;5.63;;
25752;SDS011;13600;50.816;4.416;2023-07-09T02:31:52;11.25;;;5.55;;
25752;SDS011;13600;50.816;4.416;2023-07-09T02:34:20;9.98;;;5.75;;
25752;SDS011;13600;50.816;4.416;2023-07-09T02:36:46;11.55;;;5.75;;
25752;SDS011;13600;50.816;4.416;2023-07-09T02:39:13;8.38;;;5.47;;
25752;SDS011;13600;50.816;4.416;2023-07-09T02:41:39;7.82;;;5.50;;
25752;SDS011;13600;50.816;4.416;2023-07-09T02:44:06;15.50;;;5.90;;
25752;SDS011;13600;50.816;4.416;2023-07-09T02:46:32;10.35;;;6.05;;
25752;SDS011;13600;50.816;4.416;2023-07-09T02:48:59;11.88;;;5.50;;
25752;SDS011;13600;50.816;4.416;2023-07-09T02:51:25;10.25;;;5.93;;
25752;SDS011;13600;50.816;4.416;2023-07-09T02:53:53;12.07;;;6.15;;
25752;SDS011;13600;50.816;4.416;2023-07-09T02:56:20;10.10;;;5.88;;
25752;SDS011;13600;50.816;4.416;2023-07-09T02:58:46;11.50;;;5.78;;
25752;SDS011;13600;50.816;4.416;2023-07-09T03:01:12;10.05;;;5.80;;
25752;SDS011;13600;50.816;4.416;2023-07-09T03:03:38;9.70;;;6.50;;
25752;SDS011;13600;50.816;4.416;2023-07-09T03:06:04;10.52;;;5.70;;
25752;SDS011;13600;50.816;4.416;2023-07-09T03:08:31;13.20;;;5.72;;
25752;SDS011;13600;50.816;4.416;2023-07-09T03:10:57;10.55;;;5.85;;
25752;SDS011;13600;50.816;4.416;2023-07-09T03:13:23;9.60;;;5.70;;
25752;SDS011;13600;50.816;4.416;2023-07-09T03:15:58;8.40;;;5.30;;
25752;SDS011;13600;50.816;4.416;2023-07-09T03:18:23;10.20;;;6.15;;
25752;SDS011;13600;50.816;4.416;2023-07-09T03:20:50;11.68;;;6.15;;
25752;SDS011;13600;50.816;4.416;2023-07-09T03:23:16;10.57;;;5.90;;
25752;SDS011;13600;50.816;4.416;2023-07-09T03:25:42;12.25;;;6.28;;
25752;SDS011;13600;50.816;4.416;2023-07-09T03:28:08;9.23;;;5.72;;
25752;SDS011;13600;50.816;4.416;2023-07-09T03:30:34;9.85;;;5.80;;
25752;SDS011;13600;50.816;4.416;2023-07-09T03:33:00;10.10;;;5.68;;
25752;SDS011;13600;50.816;4.416;2023-07-09T03:35:26;10.18;;;5.85;;
25752;SDS011;13600;50.816;4.416;2023-07-09T03:37:51;11.30;;;5.95;;
25752;SDS011;13600;50.816;4.416;2023-07-09T03:40:21;8.30;;;5.60;;
25752;SDS011;13600;50.816;4.416;2023-07-09T03:42:47;9.23;;;5.40;;
25752;SDS011;13600;50.816;4.416;2023-07-09T03:45:13;9.52;;;5.97;;
25752;SDS011;13600;50.816;4.416;2023-07-09T03:47:39;11.98;;;5.55;;
25752;SDS011;13600;50.816;4.416;2023-07-09T03:50:06;10.68;;;6.00;;
25752;SDS011;13600;50.816;4.416;2023-07-09T03:52:33;7.25;;;5.10;;
25752;SDS011;13600;50.816;4.416;2023-07-09T03:54:59;9.30;;;5.50;;
25752;SDS011;13600;50.816;4.416;2023-07-09T03:57:26;13.20;;;5.60;;
25752;SDS011;13600;50.816;4.416;2023-07-09T03:59:52;15.23;;;5.97;;
25752;SDS011;13600;50.816;4.416;2023-07-09T04:02:18;10.00;;;5.72;;
25752;SDS011;13600;50.816;4.416;2023-07-09T04:04:43;10.77;;;5.65;;
25752;SDS011;13600;50.816;4.416;2023-07-09T04:07:09;13.70;;;5.53;;
25752;SDS011;13600;50.816;4.416;2023-07-09T04:09:35;13.23;;;5.30;;
25752;SDS011;13600;50.816;4.416;2023-07-09T04:12:00;10.63;;;5.10;;
25752;SDS011;13600;50.816;4.416;2023-07-09T04:14:27;10.45;;;4.88;;
25752;SDS011;13600;50.816;4.416;2023-07-09T04:16:53;11.70;;;5.00;;
25752;SDS011;13600;50.816;4.416;2023-07-09T04:19:18;12.02;;;5.95;;
25752;SDS011;13600;50.816;4.416;2023-07-09T04:21:44;9.52;;;4.95;;
25752;SDS011;13600;50.816;4.416;2023-07-09T04:24:09;10.65;;;5.30;;
25752;SDS011;13600;50.816;4.416;2023-07-09T04:26:35;11.15;;;5.60;;
25752;SDS011;13600;50.816;4.416;2023-07-09T04:29:05;8.32;;;5.32;;
25752;SDS011;13600;50.816;4.416;2023-07-09T04:31:31;13.63;;;5.57;;
25752;SDS011;13600;50.816;4.416;2023-07-09T04:33:57;8.77;;;5.55;;
25752;SDS011;13600;50.816;4.416;2023-07-09T04:36:23;11.48;;;5.82;;
25752;SDS011;13600;50.816;4.416;2023-07-09T04:38:49;16.30;;;5.90;;
25752;SDS011;13600;50.816;4.416;2023-07-09T04:41:14;10.77;;;5.40;;
25752;SDS011;13600;50.816;4.416;2023-07-09T04:43:40;12.57;;;5.88;;
25752;SDS011;13600;50.816;4.416;2023-07-09T04:46:06;8.25;;;5.45;;
25752;SDS011;13600;50.816;4.416;2023-07-09T04:48:32;10.70;;;5.90;;
25752;SDS011;13600;50.816;4.416;2023-07-09T04:50:57;12.27;;;6.10;;
25752;SDS011;13600;50.816;4.416;2023-07-09T04:53:24;13.65;;;5.97;;
25752;SDS011;13600;50.816;4.416;2023-07-09T04:55:51;10.77;;;5.85;;
25752;SDS011;13600;50.816;4.416;2023-07-09T04:58:17;13.68;;;6.03;;
25752;SDS011;13600;50.816;4.416;2023-07-09T05:00:43;9.65;;;5.93;;
25752;SDS011;13600;50.816;4.416;2023-07-09T05:03:10;12.38;;;5.97;;
25752;SDS011;13600;50.816;4.416;2023-07-09T05:05:41;14.02;;;6.03;;
25752;SDS011;13600;50.816;4.416;2023-07-09T05:08:13;10.35;;;6.15;;
25752;SDS011;13600;50.816;4.416;2023-07-09T05:10:43;12.35;;;6.10;;
25752;SDS011;13600;50.816;4.416;2023-07-09T05:13:10;10.68;;;6.28;;
25752;SDS011;13600;50.816;4.416;2023-07-09T05:15:40;13.50;;;6.70;;
25752;SDS011;13600;50.816;4.416;2023-07-09T05:18:07;14.57;;;6.30;;
25752;SDS011;13600;50.816;4.416;2023-07-09T05:20:35;10.88;;;6.10;;
25752;SDS011;13600;50.816;4.416;2023-07-09T05:23:01;10.50;;;6.30;;
25752;SDS011;13600;50.816;4.416;2023-07-09T05:25:27;15.18;;;6.50;;
25752;SDS011;13600;50.816;4.416;2023-07-09T05:27:52;12.98;;;6.25;;
25752;SDS011;13600;50.816;4.416;2023-07-09T05:30:18;13.68;;;5.90;;
25752;SDS011;13600;50.816;4.416;2023-07-09T05:32:44;12.65;;;5.80;;
25752;SDS011;13600;50.816;4.416;2023-07-09T05:35:12;12.60;;;5.80;;
25752;SDS011;13600;50.816;4.416;2023-07-09T05:37:39;11.50;;;5.78;;
25752;SDS011;13600;50.816;4.416;2023-07-09T05:40:06;10.93;;;5.68;;
25752;SDS011;13600;50.816;4.416;2023-07-09T05:42:34;10.70;;;5.70;;
25752;SDS011;13600;50.816;4.416;2023-07-09T05:45:00;8.57;;;5.45;;
25752;SDS011;13600;50.816;4.416;2023-07-09T05:47:26;9.07;;;5.55;;
25752;SDS011;13600;50.816;4.416;2023-07-09T05:49:52;12.80;;;5.35;;
25752;SDS011;13600;50.816;4.416;2023-07-09T05:52:18;9.23;;;5.30;;
25752;SDS011;13600;50.816;4.416;2023-07-09T05:54:45;8.13;;;4.95;;
25752;SDS011;13600;50.816;4.416;2023-07-09T05:57:11;10.98;;;5.10;;
25752;SDS011;13600;50.816;4.416;2023-07-09T05:59:37;9.70;;;5.18;;
25752;SDS011;13600;50.816;4.416;2023-07-09T06:02:02;9.70;;;4.90;;
25752;SDS011;13600;50.816;4.416;2023-07-09T06:04:29;10.50;;;5.18;;
25752;SDS011;13600;50.816;4.416;2023-07-09T06:06:58;10.55;;;5.63;;
25752;SDS011;13600;50.816;4.416;2023-07-09T06:09:23;11.50;;;5.13;;
25752;SDS011;13600;50.816;4.416;2023-07-09T06:11:49;8.65;;;5.00;;
25752;SDS011;13600;50.816;4.416;2023-07-09T06:14:16;9.20;;;4.70;;
25752;SDS011;13600;50.816;4.416;2023-07-09T06:16:42;12.38;;;4.93;;
25752;SDS011;13600;50.816;4.416;2023-07-09T06:19:09;10.23;;;4.82;;
25752;SDS011;13600;50.816;4.416;2023-07-09T06:21:35;9.68;;;5.82;;
25752;SDS011;13600;50.816;4.416;2023-07-09T06:24:01;14.43;;;5.22;;
25752;SDS011;13600;50.816;4.416;2023-07-09T06:26:26;12.13;;;5.57;;
25752;SDS011;13600;50.816;4.416;2023-07-09T06:28:52;9.32;;;5.25;;
25752;SDS011;13600;50.816;4.416;2023-07-09T06:31:19;8.88;;;5.22;;
25752;SDS011;13600;50.816;4.416;2023-07-09T06:33:46;12.50;;;5.43;;
25752;SDS011;13600;50.816;4.416;2023-07-09T06:36:12;11.07;;;5.90;;
25752;SDS011;13600;50.816;4.416;2023-07-09T06:38:39;23.48;;;10.07;;
25752;SDS011;13600;50.816;4.416;2023-07-09T06:41:05;10.30;;;5.80;;
25752;SDS011;13600;50.816;4.416;2023-07-09T06:43:31;12.50;;;5.85;;
25752;SDS011;13600;50.816;4.416;2023-07-09T06:45:58;14.65;;;6.20;;
25752;SDS011;13600;50.816;4.416;2023-07-09T06:48:25;12.68;;;5.75;;
25752;SDS011;13600;50.816;4.416;2023-07-09T06:50:53;18.35;;;6.15;;
25752;SDS011;13600;50.816;4.416;2023-07-09T06:53:22;12.00;;;6.25;;
25752;SDS011;13600;50.816;4.416;2023-07-09T06:55:48;12.57;;;6.30;;
25752;SDS011;13600;50.816;4.416;2023-07-09T06:58:18;9.70;;;5.78;;
25752;SDS011;13600;50.816;4.416;2023-07-09T07:00:44;13.48;;;5.90;;
25752;SDS011;13600;50.816;4.416;2023-07-09T07:03:11;19.45;;;8.25;;
25752;SDS011;13600;50.816;4.416;2023-07-09T07:05:37;13.43;;;6.05;;
25752;SDS011;13600;50.816;4.416;2023-07-09T07:08:03;15.10;;;6.32;;
25752;SDS011;13600;50.816;4.416;2023-07-09T07:10:29;14.35;;;7.10;;
25752;SDS011;13600;50.816;4.416;2023-07-09T07:12:55;11.13;;;6.22;;
25752;SDS011;13600;50.816;4.416;2023-07-09T07:15:21;19.13;;;7.22;;
25752;SDS011;13600;50.816;4.416;2023-07-09T07:17:47;11.52;;;7.28;;
25752;SDS011;13600;50.816;4.416;2023-07-09T07:20:14;19.15;;;7.10;;
25752;SDS011;13600;50.816;4.416;2023-07-09T07:22:40;11.45;;;6.90;;
25752;SDS011;13600;50.816;4.416;2023-07-09T07:25:06;16.85;;;8.63;;
25752;SDS011;13600;50.816;4.416;2023-07-09T07:27:33;20.20;;;8.85;;
25752;SDS011;13600;50.816;4.416;2023-07-09T07:29:58;13.30;;;8.15;;
25752;SDS011;13600;50.816;4.416;2023-07-09T07:32:25;19.10;;;9.82;;
25752;SDS011;13600;50.816;4.416;2023-07-09T07:34:50;23.00;;;10.70;;
25752;SDS011;13600;50.816;4.416;2023-07-09T07:37:19;21.73;;;10.32;;
25752;SDS011;13600;50.816;4.416;2023-07-09T07:39:46;19.98;;;11.93;;
25752;SDS011;13600;50.816;4.416;2023-07-09T07:42:12;20.85;;;12.00;;
25752;SDS011;13600;50.816;4.416;2023-07-09T07:44:39;22.98;;;13.90;;
25752;SDS011;13600;50.816;4.416;2023-07-09T07:47:05;18.45;;;13.85;;
25752;SDS011;13600;50.816;4.416;2023-07-09T07:49:31;19.33;;;15.18;;
25752;SDS011;13600;50.816;4.416;2023-07-09T07:51:57;23.35;;;15.70;;
25752;SDS011;13600;50.816;4.416;2023-07-09T07:54:23;23.23;;;15.80;;
25752;SDS011;13600;50.816;4.416;2023-07-09T07:56:49;22.83;;;15.43;;
25752;SDS011;13600;50.816;4.416;2023-07-09T07:59:16;24.63;;;17.23;;
25752;SDS011;13600;50.816;4.416;2023-07-09T08:01:42;26.80;;;17.52;;
25752;SDS011;13600;50.816;4.416;2023-07-09T08:04:08;25.30;;;17.88;;
25752;SDS011;13600;50.816;4.416;2023-07-09T08:06:33;23.08;;;17.52;;
25752;SDS011;13600;50.816;4.416;2023-07-09T08:09:00;24.65;;;17.40;;
25752;SDS011;13600;50.816;4.416;2023-07-09T08:11:26;27.02;;;17.55;;
25752;SDS011;13600;50.816;4.416;2023-07-09T08:13:53;24.67;;;18.67;;
25752;SDS011;13600;50.816;4.416;2023-07-09T08:16:20;27.98;;;19.55;;
25752;SDS011;13600;50.816;4.416;2023-07-09T08:18:45;31.52;;;19.92;;
25752;SDS011;13600;50.816;4.416;2023-07-09T08:21:11;29.02;;;18.83;;
25752;SDS011;13600;50.816;4.416;2023-07-09T08:23:36;31.17;;;19.55;;
25752;SDS011;13600;50.816;4.416;2023-07-09T08:26:03;30.88;;;18.92;;
25752;SDS011;13600;50.816;4.416;2023-07-09T08:28:30;28.10;;;18.63;;
25752;SDS011;13600;50.816;4.416;2023-07-09T08:30:56;29.17;;;19.10;;
25752;SDS011;13600;50.816;4.416;2023-07-09T08:33:22;28.00;;;19.25;;
25752;SDS011;13600;50.816;4.416;2023-07-09T08:35:49;26.80;;;17.42;;
25752;SDS011;13600;50.816;4.416;2023-07-09T08:38:16;27.98;;;17.15;;
25752;SDS011;13600;50.816;4.416;2023-07-09T08:40:45;25.05;;;17.27;;
25752;SDS011;13600;50.816;4.416;2023-07-09T08:48:59;26.02;;;16.42;;
25752;SDS011;13600;50.816;4.416;2023-07-09T08:54:04;27.52;;;19.65;;
25752;SDS011;13600;50.816;4.416;2023-07-09T08:56:53;27.58;;;17.15;;
25752;SDS011;13600;50.816;4.416;2023-07-09T08:59:23;29.27;;;18.23;;
25752;SDS011;13600;50.816;4.416;2023-07-09T09:01:50;24.70;;;17.35;;
25752;SDS011;13600;50.816;4.416;2023-07-09T09:04:31;26.00;;;19.35;;
25752;SDS011;13600;50.816;4.416;2023-07-09T09:09:44;24.70;;;19.23;;
25752;SDS011;13600;50.816;4.416;2023-07-09T09:12:26;23.90;;;16.67;;
25752;SDS011;13600;50.816;4.416;2023-07-09T09:14:58;28.73;;;17.07;;
25752;SDS011;13600;50.816;4.416;2023-07-09T09:17:27;20.35;;;14.40;;
25752;SDS011;13600;50.816;4.416;2023-07-09T09:19:55;20.08;;;15.30;;
25752;SDS011;13600;50.816;4.416;2023-07-09T09:22:24;20.58;;;13.27;;
25752;SDS011;13600;50.816;4.416;2023-07-09T09:25:10;19.13;;;13.32;;
25752;SDS011;13600;50.816;4.416;2023-07-09T09:27:40;21.45;;;14.70;;
25752;SDS011;13600;50.816;4.416;2023-07-09T09:30:18;21.05;;;14.38;;
25752;SDS011;13600;50.816;4.416;2023-07-09T09:32:47;20.98;;;14.32;;
25752;SDS011;13600;50.816;4.416;2023-07-09T09:35:18;21.48;;;15.40;;
25752;SDS011;13600;50.816;4.416;2023-07-09T09:37:54;20.70;;;14.68;;
25752;SDS011;13600;50.816;4.416;2023-07-09T09:40:23;19.02;;;13.30;;
25752;SDS011;13600;50.816;4.416;2023-07-09T09:42:50;21.67;;;14.07;;
25752;SDS011;13600;50.816;4.416;2023-07-09T09:45:19;19.40;;;13.15;;
25752;SDS011;13600;50.816;4.416;2023-07-09T09:47:47;18.83;;;12.60;;
25752;SDS011;13600;50.816;4.416;2023-07-09T09:50:17;18.63;;;13.07;;
25752;SDS011;13600;50.816;4.416;2023-07-09T09:52:44;15.73;;;12.50;;
25752;SDS011;13600;50.816;4.416;2023-07-09T09:55:32;22.00;;;16.13;;
25752;SDS011;13600;50.816;4.416;2023-07-09T09:57:58;19.42;;;14.13;;
25752;SDS011;13600;50.816;4.416;2023-07-09T10:00:25;19.58;;;12.25;;
25752;SDS011;13600;50.816;4.416;2023-07-09T10:03:01;20.45;;;13.15;;
25752;SDS011;13600;50.816;4.416;2023-07-09T10:05:42;17.60;;;13.23;;
25752;SDS011;13600;50.816;4.416;2023-07-09T10:17:05;17.20;;;12.23;;
25752;SDS011;13600;50.816;4.416;2023-07-09T10:19:45;20.98;;;15.15;;
25752;SDS011;13600;50.816;4.416;2023-07-09T10:22:22;18.92;;;15.13;;
25752;SDS011;13600;50.816;4.416;2023-07-09T10:33:25;16.88;;;12.95;;
25752;SDS011;13600;50.816;4.416;2023-07-09T10:38:57;22.83;;;13.10;;
25752;SDS011;13600;50.816;4.416;2023-07-09T10:41:32;14.50;;;11.13;;
25752;SDS011;13600;50.816;4.416;2023-07-09T10:44:06;19.58;;;12.43;;
25752;SDS011;13600;50.816;4.416;2023-07-09T10:46:55;20.33;;;13.13;;
25752;SDS011;13600;50.816;4.416;2023-07-09T10:49:24;22.05;;;11.98;;
25752;SDS011;13600;50.816;4.416;2023-07-09T10:52:11;18.17;;;11.68;;
25752;SDS011;13600;50.816;4.416;2023-07-09T10:55:05;16.83;;;10.93;;
25752;SDS011;13600;50.816;4.416;2023-07-09T11:00:17;16.45;;;12.25;;
25752;SDS011;13600;50.816;4.416;2023-07-09T11:02:45;20.77;;;12.68;;
25752;SDS011;13600;50.816;4.416;2023-07-09T11:05:23;18.48;;;13.90;;
25752;SDS011;13600;50.816;4.416;2023-07-09T11:08:05;23.92;;;14.50;;
25752;SDS011;13600;50.816;4.416;2023-07-09T11:10:55;16.67;;;12.57;;
25752;SDS011;13600;50.816;4.416;2023-07-09T11:13:26;17.23;;;11.73;;
25752;SDS011;13600;50.816;4.416;2023-07-09T11:16:14;16.58;;;11.70;;
25752;SDS011;13600;50.816;4.416;2023-07-09T11:18:52;23.75;;;13.38;;
25752;SDS011;13600;50.816;4.416;2023-07-09T11:21:20;19.92;;;12.95;;
25752;SDS011;13600;50.816;4.416;2023-07-09T11:23:56;17.75;;;10.50;;
25752;SDS011;13600;50.816;4.416;2023-07-09T11:26:29;13.55;;;8.75;;
25752;SDS011;13600;50.816;4.416;2023-07-09T11:29:08;12.73;;;7.47;;
25752;SDS011;13600;50.816;4.416;2023-07-09T11:31:41;12.15;;;6.88;;
25752;SDS011;13600;50.816;4.416;2023-07-09T11:37:12;13.25;;;6.10;;
25752;SDS011;13600;50.816;4.416;2023-07-09T11:42:01;7.60;;;5.43;;
25752;SDS011;13600;50.816;4.416;2023-07-09T11:44:29;9.20;;;6.15;;
25752;SDS011;13600;50.816;4.416;2023-07-09T11:49:26;10.18;;;5.90;;
25752;SDS011;13600;50.816;4.416;2023-07-09T11:51:59;11.88;;;5.47;;
25752;SDS011;13600;50.816;4.416;2023-07-09T11:54:33;9.82;;;5.03;;
25752;SDS011;13600;50.816;4.416;2023-07-09T11:57:00;10.10;;;4.93;;
25752;SDS011;13600;50.816;4.416;2023-07-09T11:59:27;9.98;;;5.05;;
25752;SDS011;13600;50.816;4.416;2023-07-09T12:01:53;10.75;;;5.18;;
25752;SDS011;13600;50.816;4.416;2023-07-09T12:04:27;11.10;;;5.07;;
25752;SDS011;13600;50.816;4.416;2023-07-09T12:06:58;13.10;;;4.55;;
25752;SDS011;13600;50.816;4.416;2023-07-09T12:09:29;5.88;;;4.13;;
25752;SDS011;13600;50.816;4.416;2023-07-09T12:11:56;12.23;;;5.18;;
25752;SDS011;13600;50.816;4.416;2023-07-09T12:14:22;11.10;;;4.60;;
25752;SDS011;13600;50.816;4.416;2023-07-09T12:16:50;9.25;;;4.85;;
25752;SDS011;13600;50.816;4.416;2023-07-09T12:19:21;9.40;;;5.18;;
25752;SDS011;13600;50.816;4.416;2023-07-09T12:21:49;12.38;;;5.32;;
25752;SDS011;13600;50.816;4.416;2023-07-09T12:24:28;11.05;;;5.50;;
25752;SDS011;13600;50.816;4.416;2023-07-09T12:27:01;58.10;;;12.18;;
25752;SDS011;13600;50.816;4.416;2023-07-09T12:29:28;23.58;;;9.20;;
25752;SDS011;13600;50.816;4.416;2023-07-09T12:32:03;20.02;;;8.63;;
25752;SDS011;13600;50.816;4.416;2023-07-09T12:34:36;18.02;;;8.57;;
25752;SDS011;13600;50.816;4.416;2023-07-09T12:37:02;19.02;;;9.50;;
25752;SDS011;13600;50.816;4.416;2023-07-09T12:39:29;15.95;;;9.23;;
25752;SDS011;13600;50.816;4.416;2023-07-09T12:42:01;18.75;;;10.35;;
25752;SDS011;13600;50.816;4.416;2023-07-09T12:44:29;26.10;;;11.23;;
25752;SDS011;13600;50.816;4.416;2023-07-09T12:46:59;20.08;;;11.18;;
25752;SDS011;13600;50.816;4.416;2023-07-09T12:49:29;16.73;;;10.27;;
25752;SDS011;13600;50.816;4.416;2023-07-09T12:52:02;17.40;;;10.63;;
25752;SDS011;13600;50.816;4.416;2023-07-09T12:54:34;18.88;;;11.23;;
25752;SDS011;13600;50.816;4.416;2023-07-09T12:57:00;22.63;;;10.90;;
25752;SDS011;13600;50.816;4.416;2023-07-09T12:59:38;19.70;;;11.20;;
25752;SDS011;13600;50.816;4.416;2023-07-09T13:04:41;21.25;;;11.43;;
25752;SDS011;13600;50.816;4.416;2023-07-09T13:09:49;18.30;;;11.40;;
25752;SDS011;13600;50.816;4.416;2023-07-09T13:12:16;17.67;;;12.63;;
25752;SDS011;13600;50.816;4.416;2023-07-09T13:14:41;18.50;;;12.23;;
25752;SDS011;13600;50.816;4.416;2023-07-09T13:17:08;19.27;;;12.52;;
25752;SDS011;13600;50.816;4.416;2023-07-09T13:19:34;15.68;;;10.90;;
25752;SDS011;13600;50.816;4.416;2023-07-09T13:22:00;19.60;;;11.65;;
25752;SDS011;13600;50.816;4.416;2023-07-09T13:24:29;19.98;;;11.32;;
25752;SDS011;13600;50.816;4.416;2023-07-09T13:27:00;16.70;;;10.95;;
25752;SDS011;13600;50.816;4.416;2023-07-09T13:29:26;16.70;;;10.88;;
25752;SDS011;13600;50.816;4.416;2023-07-09T13:31:52;16.30;;;10.27;;
25752;SDS011;13600;50.816;4.416;2023-07-09T13:34:20;17.05;;;11.57;;
25752;SDS011;13600;50.816;4.416;2023-07-09T13:36:49;30.70;;;22.48;;
25752;SDS011;13600;50.816;4.416;2023-07-09T13:39:16;16.20;;;10.70;;
25752;SDS011;13600;50.816;4.416;2023-07-09T13:41:43;17.30;;;10.65;;
25752;SDS011;13600;50.816;4.416;2023-07-09T13:44:21;18.10;;;10.48;;
25752;SDS011;13600;50.816;4.416;2023-07-09T13:46:53;20.13;;;11.10;;
25752;SDS011;13600;50.816;4.416;2023-07-09T13:49:20;16.50;;;10.57;;
25752;SDS011;13600;50.816;4.416;2023-07-09T13:51:48;16.00;;;9.13;;
25752;SDS011;13600;50.816;4.416;2023-07-09T13:54:21;16.77;;;9.50;;
25752;SDS011;13600;50.816;4.416;2023-07-09T13:56:47;15.73;;;9.55;;
25752;SDS011;13600;50.816;4.416;2023-07-09T13:59:19;14.18;;;9.45;;
25752;SDS011;13600;50.816;4.416;2023-07-09T14:01:50;16.15;;;9.45;;
25752;SDS011;13600;50.816;4.416;2023-07-09T14:04:19;15.25;;;8.80;;
25752;SDS011;13600;50.816;4.416;2023-07-09T14:06:46;14.55;;;9.38;;
25752;SDS011;13600;50.816;4.416;2023-07-09T14:09:13;14.52;;;9.45;;
25752;SDS011;13600;50.816;4.416;2023-07-09T14:11:47;16.30;;;8.20;;
25752;SDS011;13600;50.816;4.416;2023-07-09T14:16:45;16.50;;;7.97;;
25752;SDS011;13600;50.816;4.416;2023-07-09T14:19:13;14.65;;;8.23;;
25752;SDS011;13600;50.816;4.416;2023-07-09T14:21:41;12.75;;;8.02;;
25752;SDS011;13600;50.816;4.416;2023-07-09T14:26:45;15.95;;;7.60;;
25752;SDS011;13600;50.816;4.416;2023-07-09T14:29:12;12.98;;;7.53;;
25752;SDS011;13600;50.816;4.416;2023-07-09T14:31:39;12.65;;;6.72;;
25752;SDS011;13600;50.816;4.416;2023-07-09T14:34:24;12.50;;;6.70;;
25752;SDS011;13600;50.816;4.416;2023-07-09T14:36:54;11.73;;;6.10;;
25752;SDS011;13600;50.816;4.416;2023-07-09T14:39:21;12.40;;;5.93;;
25752;SDS011;13600;50.816;4.416;2023-07-09T14:41:48;9.07;;;6.00;;
25752;SDS011;13600;50.816;4.416;2023-07-09T14:46:57;12.05;;;5.53;;
25752;SDS011;13600;50.816;4.416;2023-07-09T14:49:25;10.02;;;5.60;;
25752;SDS011;13600;50.816;4.416;2023-07-09T14:51:51;12.95;;;6.50;;
25752;SDS011;13600;50.816;4.416;2023-07-09T14:54:19;11.20;;;6.32;;
25752;SDS011;13600;50.816;4.416;2023-07-09T14:56:49;13.90;;;6.78;;
25752;SDS011;13600;50.816;4.416;2023-07-09T14:59:16;11.85;;;6.13;;
25752;SDS011;13600;50.816;4.416;2023-07-09T15:01:42;8.48;;;6.32;;
25752;SDS011;13600;50.816;4.416;2023-07-09T15:04:31;10.82;;;6.30;;
25752;SDS011;13600;50.816;4.416;2023-07-09T15:06:58;12.15;;;6.82;;
25752;SDS011;13600;50.816;4.416;2023-07-09T15:09:26;10.45;;;6.40;;
25752;SDS011;13600;50.816;4.416;2023-07-09T15:11:54;11.80;;;6.53;;
25752;SDS011;13600;50.816;4.416;2023-07-09T15:14:21;12.10;;;6.55;;
25752;SDS011;13600;50.816;4.416;2023-07-09T15:16:47;11.07;;;6.97;;
25752;SDS011;13600;50.816;4.416;2023-07-09T15:19:20;13.35;;;7.65;;
25752;SDS011;13600;50.816;4.416;2023-07-09T15:21:48;15.90;;;6.97;;
25752;SDS011;13600;50.816;4.416;2023-07-09T15:26:52;10.82;;;6.20;;
25752;SDS011;13600;50.816;4.416;2023-07-09T15:29:19;11.20;;;6.28;;
25752;SDS011;13600;50.816;4.416;2023-07-09T15:31:46;9.48;;;5.90;;
25752;SDS011;13600;50.816;4.416;2023-07-09T15:34:12;11.18;;;6.07;;
25752;SDS011;13600;50.816;4.416;2023-07-09T15:36:43;12.57;;;6.68;;
25752;SDS011;13600;50.816;4.416;2023-07-09T15:39:13;11.90;;;6.10;;